Time;durP1;ratioP1;P1;durP2;ratioP2;P2;SDS_P1;SDS_P2;PMS_P1;PMS_P2;Temp;Humidity;BMP_temperature;BMP_pressure;BME280_temperature;BME280_humidity;BME280_pressure;Samples;Min_cycle;Max_cycle;Signal;HPM_P1;HPM_P2
2023/06/08 00:19:07;;;;;;;24.33;18.37;;;;;;;20.30;67.74;99059.66;5083853;27;20104;-83
2023/06/08 00:21:36;;;;;;;24.35;17.55;;;;;;;20.12;67.64;99061.94;4352107;32;33358;-82
2023/06/08 00:24:04;;;;;;;23.73;18.52;;;;;;;20.03;67.97;99056.91;4360873;32;34162;-83
2023/06/08 00:26:31;;;;;;;25.75;18.67;;;;;;;19.71;69.48;99054.28;4360535;32;33489;-85
2023/06/08 00:28:59;;;;;;;24.85;17.37;;;;;;;19.62;70.12;99051.00;4360782;32;33387;-85
2023/06/08 00:31:28;;;;;;;19.55;17.12;;;;;;;19.63;70.07;99046.59;4347105;32;34346;-82
2023/06/08 00:33:55;;;;;;;25.12;18.80;;;;;;;19.86;68.83;99044.22;4346998;32;34064;-82
2023/06/08 00:36:23;;;;;;;23.48;18.23;;;;;;;19.83;68.55;99044.28;4360402;32;33819;-86
2023/06/08 00:38:50;;;;;;;26.20;18.50;;;;;;;19.67;69.69;99049.09;4360628;32;33751;-82
2023/06/08 00:41:18;;;;;;;26.87;21.05;;;;;;;19.44;71.36;99052.28;4360466;32;33904;-82
2023/06/08 00:43:46;;;;;;;24.90;19.10;;;;;;;19.59;70.79;99056.28;4346867;32;32663;-84
2023/06/08 00:46:14;;;;;;;28.90;21.87;;;;;;;19.56;71.16;99051.09;4347018;32;34550;-81
2023/06/08 00:48:42;;;;;;;28.75;22.77;;;;;;;19.13;73.85;99052.19;4360146;32;32984;-82
2023/06/08 00:51:11;;;;;;;30.02;20.55;;;;;;;18.99;74.78;99053.41;4347114;32;34361;-82
2023/06/08 00:53:39;;;;;;;29.37;21.17;;;;;;;19.40;72.67;99050.63;4334408;32;33982;-85
2023/06/08 00:56:07;;;;;;;26.83;20.48;;;;;;;19.52;72.28;99057.34;4346962;32;33587;-82
2023/06/08 00:58:37;;;;;;;26.73;19.55;;;;;;;19.65;71.73;99058.78;4347253;32;33431;-83
2023/06/08 01:01:11;;;;;;;24.30;18.52;;;;;;;19.53;71.87;99056.44;4360452;32;33629;-82
2023/06/08 01:03:42;;;;;;;30.08;18.70;;;;;;;19.67;71.33;99066.66;4360197;32;33701;-85
2023/06/08 01:06:12;;;;;;;29.20;19.20;;;;;;;19.76;70.71;99058.50;4359827;32;33805;-82
2023/06/08 01:08:52;;;;;;;24.58;17.85;;;;;;;19.72;70.98;99064.75;4347185;32;33960;-84
2023/06/08 01:11:37;;;;;;;25.17;16.90;;;;;;;19.89;70.21;99061.69;4360199;32;33356;-82
2023/06/08 01:14:13;;;;;;;24.30;17.87;;;;;;;19.77;70.28;99059.38;4360689;32;34978;-85
2023/06/08 01:16:44;;;;;;;23.52;17.77;;;;;;;19.79;70.22;99058.44;4359945;32;33860;-83
2023/06/08 01:19:17;;;;;;;23.67;18.70;;;;;;;19.91;69.76;99065.13;4346737;32;33611;-84
2023/06/08 01:22:03;;;;;;;23.83;18.27;;;;;;;19.83;70.13;99064.47;4346976;32;33890;-82
2023/06/08 01:24:31;;;;;;;24.60;18.27;;;;;;;19.69;71.10;99068.31;4360479;32;34967;-81
2023/06/08 01:26:59;;;;;;;23.52;17.98;;;;;;;19.82;70.46;99066.25;4346547;32;35476;-81
2023/06/08 01:29:27;;;;;;;24.45;18.27;;;;;;;20.00;70.11;99066.66;4346537;32;34402;-81
2023/06/08 01:31:55;;;;;;;24.30;17.65;;;;;;;20.12;69.84;99068.97;4360047;32;34273;-83
2023/06/08 01:34:23;;;;;;;25.70;17.80;;;;;;;20.14;69.78;99062.72;4360126;32;34200;-82
2023/06/08 01:37:02;;;;;;;24.45;19.10;;;;;;;20.04;70.31;99060.38;4345100;32;33890;-82
2023/06/08 01:39:41;;;;;;;26.42;19.33;;;;;;;20.08;70.62;99059.44;4346756;32;33250;-81
2023/06/08 01:42:10;;;;;;;22.87;17.00;;;;;;;20.27;69.77;99054.53;4346221;32;33959;-84
2023/06/08 01:45:03;;;;;;;25.12;17.75;;;;;;;20.31;69.26;99059.66;4346513;32;34845;-85
2023/06/08 01:47:51;;;;;;;22.75;17.20;;;;;;;20.26;69.40;99058.03;4359574;32;35851;-82
2023/06/08 01:50:20;;;;;;;23.95;18.12;;;;;;;20.21;69.66;99066.06;4346234;32;33535;-85
2023/06/08 01:52:48;;;;;;;21.70;17.65;;;;;;;20.21;69.54;99066.06;4359921;32;34767;-84
2023/06/08 01:55:18;;;;;;;26.73;17.27;;;;;;;20.30;69.18;99059.66;4334179;32;33812;-82
2023/06/08 01:57:46;;;;;;;22.10;16.60;;;;;;;20.27;69.22;99065.91;4346166;32;34546;-82
2023/06/08 02:00:16;;;;;;;24.12;17.33;;;;;;;20.33;68.94;99055.19;4346292;32;33191;-81
2023/06/08 02:02:44;;;;;;;23.35;17.85;;;;;;;20.33;68.90;99056.97;4359597;32;33961;-81
2023/06/08 02:05:14;;;;;;;23.05;17.23;;;;;;;20.30;69.04;99050.00;4359878;32;35056;-81
2023/06/08 02:07:42;;;;;;;18.37;15.40;;;;;;;20.36;68.67;99052.47;4359688;32;34719;-81
2023/06/08 02:10:11;;;;;;;22.25;16.08;;;;;;;20.35;68.58;99050.75;4334124;32;32335;-81
2023/06/08 02:12:39;;;;;;;23.58;16.60;;;;;;;20.36;68.62;99054.25;4359344;32;35106;-81
2023/06/08 02:15:07;;;;;;;22.08;16.92;;;;;;;20.35;68.54;99057.78;4333521;32;34391;-81
2023/06/08 02:17:35;;;;;;;19.73;16.62;;;;;;;20.31;68.62;99049.13;4345937;32;33886;-81
2023/06/08 02:20:07;;;;;;;22.27;16.25;;;;;;;20.26;68.72;99052.75;4359152;32;33793;-81
2023/06/08 02:22:37;;;;;;;21.02;16.08;;;;;;;20.26;68.63;99050.13;4346375;32;33737;-81
2023/06/08 02:25:06;;;;;;;21.62;16.50;;;;;;;20.25;68.75;99059.81;4359200;32;34198;-81
2023/06/08 02:27:36;;;;;;;19.58;15.98;;;;;;;20.23;68.75;99052.84;4345853;32;33698;-81
2023/06/08 02:30:07;;;;;;;21.40;16.62;;;;;;;20.28;68.62;99048.34;4359018;32;34646;-81
2023/06/08 02:32:41;;;;;;;20.02;15.32;;;;;;;20.22;68.81;99049.34;4345685;32;34731;-81
2023/06/08 02:35:10;;;;;;;22.73;16.65;;;;;;;20.33;68.44;99049.91;4359480;32;33998;-81
2023/06/08 02:37:38;;;;;;;22.42;17.20;;;;;;;20.24;68.97;99050.19;4345500;32;33656;-81
2023/06/08 02:40:07;;;;;;;19.85;16.02;;;;;;;20.25;69.01;99037.88;4345732;32;32914;-81
2023/06/08 02:42:36;;;;;;;21.23;17.80;;;;;;;20.32;68.94;99042.06;4346170;32;33441;-81
2023/06/08 02:45:05;;;;;;;20.40;16.75;;;;;;;20.32;69.03;99037.66;4345379;32;32627;-82
2023/06/08 02:47:32;;;;;;;25.40;17.42;;;;;;;20.25;69.51;99041.37;4346879;32;34835;-83
2023/06/08 02:50:00;;;;;;;20.95;17.83;;;;;;;20.22;69.78;99040.59;4361649;32;33686;-82
2023/06/08 02:52:30;;;;;;;21.55;18.37;;;;;;;20.26;70.45;99047.50;4361314;32;34029;-82
2023/06/08 02:54:58;;;;;;;20.50;17.90;;;;;;;20.03;71.51;99037.62;4347854;32;33888;-82
2023/06/08 02:57:26;;;;;;;23.50;19.05;;;;;;;20.00;71.92;99038.59;4347701;32;33031;-82
2023/06/08 02:59:54;;;;;;;23.00;19.40;;;;;;;20.04;71.91;99037.59;4361356;32;34211;-81
2023/06/08 03:02:22;;;;;;;20.50;18.20;;;;;;;19.70;74.02;99037.66;4347784;32;34048;-83
2023/06/08 03:04:52;;;;;;;22.95;19.40;;;;;;;19.73;73.77;99037.53;4361464;32;33631;-81
2023/06/08 03:07:20;;;;;;;22.13;18.17;;;;;;;19.84;73.28;99040.75;4361261;32;34523;-81
2023/06/08 03:09:48;;;;;;;21.35;18.73;;;;;;;19.84;73.59;99030.22;4347650;32;33784;-82
2023/06/08 03:12:16;;;;;;;24.45;19.15;;;;;;;19.81;73.70;99039.97;4361214;32;34604;-82
2023/06/08 03:14:44;;;;;;;23.38;20.17;;;;;;;19.60;74.55;99041.37;4347750;32;33688;-82
2023/06/08 03:17:12;;;;;;;24.58;19.50;;;;;;;19.56;74.87;99051.09;4361165;32;33561;-82
2023/06/08 03:19:40;;;;;;;26.75;21.08;;;;;;;19.78;74.30;99043.56;4361244;32;33671;-82
2023/06/08 03:22:08;;;;;;;22.90;18.58;;;;;;;19.78;74.11;99047.97;4347130;32;33096;-82
2023/06/08 03:24:36;;;;;;;24.27;19.00;;;;;;;19.95;73.51;99047.50;4347498;32;33939;-83
2023/06/08 03:27:08;;;;;;;24.70;19.90;;;;;;;20.11;72.84;99048.78;4347661;32;32508;-82
2023/06/08 03:29:35;;;;;;;23.90;20.60;;;;;;;20.24;72.16;99044.94;4360872;32;34355;-83
2023/06/08 03:32:04;;;;;;;30.75;20.92;;;;;;;20.26;71.81;99043.09;4347053;32;33872;-83
2023/06/08 03:34:32;;;;;;;27.75;22.05;;;;;;;20.04;72.31;99042.84;4358022;32;34137;-82
2023/06/08 03:37:00;;;;;;;28.35;22.13;;;;;;;19.96;72.82;99046.59;4361078;32;34648;-83
2023/06/08 03:39:29;;;;;;;24.12;20.20;;;;;;;20.02;72.18;99051.69;4358298;32;33026;-82
2023/06/08 03:41:56;;;;;;;27.13;21.70;;;;;;;20.01;72.05;99053.47;4362075;32;33173;-82
2023/06/08 03:44:24;;;;;;;28.20;20.73;;;;;;;20.07;72.11;99049.78;4362328;32;33936;-85
2023/06/08 03:46:53;;;;;;;27.87;20.75;;;;;;;20.15;71.65;99050.44;4376123;32;33972;-83
2023/06/08 03:49:21;;;;;;;25.45;19.98;;;;;;;20.37;70.89;99056.81;4375556;32;33172;-83
2023/06/08 03:51:49;;;;;;;23.23;19.85;;;;;;;20.41;70.64;99047.91;4375936;32;33488;-83
2023/06/08 03:54:16;;;;;;;27.00;19.58;;;;;;;20.46;70.54;99054.84;4364063;32;34868;-82
2023/06/08 03:56:44;;;;;;;25.20;19.65;;;;;;;20.49;70.45;99055.63;4362780;32;33906;-83
2023/06/08 03:59:13;;;;;;;26.00;18.83;;;;;;;20.54;70.30;99055.53;4346495;32;33291;-82
2023/06/08 04:01:45;;;;;;;22.17;19.48;;;;;;;20.62;69.94;99058.78;4361013;32;33840;-84
2023/06/08 04:04:13;;;;;;;22.40;18.98;;;;;;;20.58;70.11;99052.75;4360653;32;33629;-82
2023/06/08 04:06:40;;;;;;;23.58;19.40;;;;;;;20.63;70.05;99055.22;4360140;32;34063;-85
2023/06/08 04:09:08;;;;;;;23.12;18.10;;;;;;;20.67;69.92;99054.22;4359180;32;34490;-82
2023/06/08 04:11:36;;;;;;;23.77;18.70;;;;;;;20.52;70.48;99049.41;4370886;32;34700;-83
2023/06/08 04:14:03;;;;;;;28.17;20.55;;;;;;;20.64;70.13;99049.91;4358745;32;33837;-83
2023/06/08 04:16:31;;;;;;;23.33;20.58;;;;;;;20.42;71.19;99048.81;4359285;32;33900;-82
2023/06/08 04:19:00;;;;;;;26.25;21.15;;;;;;;20.15;72.12;99051.31;4358797;32;34336;-82
2023/06/08 04:21:28;;;;;;;26.77;21.00;;;;;;;20.34;71.44;99056.94;4358874;32;33707;-82
2023/06/08 04:23:57;;;;;;;28.23;20.80;;;;;;;20.41;71.45;99058.44;4347127;32;34275;-82
2023/06/08 04:26:25;;;;;;;30.25;20.50;;;;;;;20.46;71.39;99054.84;4362553;32;33927;-85
2023/06/08 04:28:53;;;;;;;25.00;19.73;;;;;;;20.29;72.11;99058.81;4368219;32;33531;-86
2023/06/08 04:31:21;;;;;;;24.92;19.25;;;;;;;20.32;71.99;99056.09;4349918;32;32135;-83
2023/06/08 04:33:50;;;;;;;21.85;19.30;;;;;;;20.30;71.81;99054.41;4376013;32;33943;-83
2023/06/08 04:36:18;;;;;;;28.48;20.23;;;;;;;20.47;71.40;99056.56;4375895;32;34080;-82
2023/06/08 04:38:46;;;;;;;22.45;18.25;;;;;;;20.55;71.04;99060.72;4368692;32;33327;-85
2023/06/08 04:41:14;;;;;;;25.77;19.65;;;;;;;20.51;71.41;99059.09;4346160;32;33282;-82
2023/06/08 04:43:44;;;;;;;23.38;18.52;;;;;;;20.57;71.32;99068.56;4360193;32;33785;-82
2023/06/08 04:46:13;;;;;;;25.55;19.20;;;;;;;20.58;71.53;99062.41;4360539;32;34302;-80
2023/06/08 04:48:43;;;;;;;22.65;18.33;;;;;;;20.60;71.45;99064.06;4360715;32;34618;-82
2023/06/08 04:51:11;;;;;;;22.75;18.37;;;;;;;20.60;71.57;99064.06;4346893;32;33957;-86
2023/06/08 04:53:38;;;;;;;22.05;18.35;;;;;;;20.78;71.11;99064.44;4360174;32;34178;-82
2023/06/08 04:56:06;;;;;;;23.38;19.15;;;;;;;20.70;71.46;99069.09;4360138;32;34707;-83
2023/06/08 04:58:34;;;;;;;23.67;18.77;;;;;;;20.77;71.21;99070.63;4360236;32;34505;-84
2023/06/08 05:01:01;;;;;;;28.23;18.92;;;;;;;20.93;70.73;99071.03;4346525;32;33161;-86
2023/06/08 05:03:29;;;;;;;22.85;18.27;;;;;;;21.05;70.53;99070.63;4360189;32;34101;-81
2023/06/08 05:05:57;;;;;;;24.98;18.55;;;;;;;21.06;70.05;99067.97;4347073;32;33933;-81
2023/06/08 05:08:24;;;;;;;20.08;17.37;;;;;;;21.08;70.30;99068.78;4360201;32;34390;-83
2023/06/08 05:10:52;;;;;;;24.63;18.23;;;;;;;21.09;69.53;99067.00;4359915;32;34696;-82
2023/06/08 05:13:20;;;;;;;24.85;19.40;;;;;;;20.60;71.68;99082.50;4359936;32;34061;-84
2023/06/08 05:15:47;;;;;;;20.83;17.87;;;;;;;20.73;71.54;99077.75;4360218;32;34060;-83
2023/06/08 05:18:15;;;;;;;22.37;19.00;;;;;;;21.10;70.44;99072.22;4354819;32;33953;-89
2023/06/08 05:20:42;;;;;;;23.33;18.40;;;;;;;21.13;69.25;99073.88;4359246;32;33761;-89
2023/06/08 05:23:10;;;;;;;25.42;20.08;;;;;;;20.86;70.24;99068.56;4344313;32;33958;-82
2023/06/08 05:25:38;;;;;;;24.35;19.67;;;;;;;20.75;70.65;99081.19;4358790;32;33718;-82
2023/06/08 05:28:06;;;;;;;24.25;20.50;;;;;;;20.57;71.89;99077.38;4358976;32;33531;-82
2023/06/08 05:30:33;;;;;;;28.80;21.42;;;;;;;20.51;72.34;99079.31;4345554;32;33634;-82
2023/06/08 05:33:01;;;;;;;23.58;21.08;;;;;;;20.42;72.91;99085.69;4358670;32;34031;-84
2023/06/08 05:35:29;;;;;;;27.08;21.37;;;;;;;20.55;72.88;99079.16;4358888;32;34009;-82
2023/06/08 05:37:57;;;;;;;25.95;20.80;;;;;;;20.61;72.79;99080.78;4358200;32;33521;-82
2023/06/08 05:40:24;;;;;;;28.92;21.17;;;;;;;20.77;71.68;99079.41;4356950;32;33909;-82
2023/06/08 05:42:52;;;;;;;26.12;21.37;;;;;;;20.92;70.85;99077.22;4357346;32;33678;-82
2023/06/08 05:45:20;;;;;;;26.23;20.92;;;;;;;20.83;71.27;99075.69;4356907;32;33142;-81
2023/06/08 05:47:48;;;;;;;23.73;20.52;;;;;;;20.85;71.59;99080.03;4358342;32;33544;-82
2023/06/08 05:50:15;;;;;;;26.65;21.92;;;;;;;20.83;71.63;99076.56;4332138;32;34634;-83
2023/06/08 05:52:43;;;;;;;28.75;21.55;;;;;;;20.94;71.60;99080.66;4356978;32;34134;-82
2023/06/08 05:55:11;;;;;;;26.90;21.60;;;;;;;21.02;71.44;99082.12;4344387;32;33930;-83
2023/06/08 05:57:40;;;;;;;28.17;22.37;;;;;;;21.23;70.80;99080.59;4358395;32;33458;-82
2023/06/08 06:00:11;;;;;;;26.40;21.42;;;;;;;21.08;71.78;99081.09;4358523;32;34639;-82
2023/06/08 06:02:41;;;;;;;30.83;21.73;;;;;;;21.08;71.28;99081.09;4344846;32;33733;-81
2023/06/08 06:05:08;;;;;;;28.62;21.95;;;;;;;21.05;71.47;99076.75;4358401;32;33817;-81
2023/06/08 06:07:36;;;;;;;29.27;22.45;;;;;;;21.31;70.58;99075.09;4358008;32;33045;-82
2023/06/08 06:10:05;;;;;;;29.45;22.15;;;;;;;21.36;70.43;99073.19;4357814;32;34858;-82
2023/06/08 06:12:33;;;;;;;29.40;22.30;;;;;;;20.85;72.22;99085.28;4341236;32;33809;-83
2023/06/08 06:15:01;;;;;;;27.65;21.20;;;;;;;21.27;71.21;99074.31;4358637;32;34298;-83
2023/06/08 06:17:30;;;;;;;25.45;21.25;;;;;;;21.41;69.54;99080.97;4344283;32;33289;-84
2023/06/08 06:19:58;;;;;;;27.08;22.20;;;;;;;21.09;70.41;99077.53;4355825;32;87662;-82
2023/06/08 06:22:25;;;;;;;28.67;22.83;;;;;;;21.29;70.28;99080.41;4359611;32;35398;-86
2023/06/08 06:24:53;;;;;;;27.92;20.98;;;;;;;21.30;70.11;99076.88;4360879;32;34258;-84
2023/06/08 06:27:21;;;;;;;26.60;21.80;;;;;;;21.16;70.58;99072.94;4346921;32;33417;-84
2023/06/08 06:29:51;;;;;;;28.27;21.90;;;;;;;21.13;70.35;99074.75;4361083;32;33970;-86
2023/06/08 06:32:20;;;;;;;25.67;21.73;;;;;;;21.09;71.05;99070.47;4359834;32;34179;-82
2023/06/08 06:34:47;;;;;;;26.73;21.90;;;;;;;21.19;70.48;99071.06;4361076;32;34477;-83
2023/06/08 06:37:15;;;;;;;24.95;20.77;;;;;;;21.26;69.35;99075.25;4361141;32;33874;-82
2023/06/08 06:39:43;;;;;;;28.70;22.10;;;;;;;20.94;71.09;99072.75;4355155;32;34243;-86
2023/06/08 06:42:10;;;;;;;24.90;22.15;;;;;;;21.37;70.27;99059.09;4360901;32;32895;-83
2023/06/08 06:44:39;;;;;;;26.98;21.52;;;;;;;21.16;71.22;99057.13;4361166;32;34587;-82
2023/06/08 06:47:07;;;;;;;27.02;22.33;;;;;;;21.10;70.56;99071.34;4360911;32;34294;-82
2023/06/08 06:49:35;;;;;;;25.15;21.98;;;;;;;21.28;69.57;99068.12;4346484;32;34925;-82
2023/06/08 06:52:03;;;;;;;25.77;22.23;;;;;;;21.23;70.28;99066.56;4360277;32;34503;-82
2023/06/08 06:54:34;;;;;;;27.87;22.67;;;;;;;21.63;68.26;99066.16;4360918;32;33475;-83
2023/06/08 06:57:01;;;;;;;29.48;22.30;;;;;;;21.62;68.92;99072.31;4361207;32;33502;-86
2023/06/08 06:59:29;;;;;;;25.20;22.17;;;;;;;21.53;70.02;99072.66;4361214;32;33814;-82
2023/06/08 07:01:57;;;;;;;28.23;23.12;;;;;;;20.85;72.04;99079.16;4335499;32;33702;-86
2023/06/08 07:04:25;;;;;;;28.05;23.02;;;;;;;21.25;71.11;99076.16;4360545;32;34560;-86
2023/06/08 07:06:53;;;;;;;27.62;22.15;;;;;;;21.51;69.82;99074.47;4335511;32;33458;-82
2023/06/08 07:09:21;;;;;;;23.60;20.23;;;;;;;21.18;70.67;99069.34;4360950;32;34774;-82
2023/06/08 07:11:49;;;;;;;25.35;22.33;;;;;;;21.16;70.80;99073.81;4360941;32;34995;-84
2023/06/08 07:14:36;;;;;;;25.90;22.40;;;;;;;21.34;71.35;99075.88;4361091;32;34279;-85
2023/06/08 07:17:04;;;;;;;26.05;21.35;;;;;;;21.34;70.47;99077.66;4355459;32;34425;-81
2023/06/08 07:19:33;;;;;;;28.70;22.08;;;;;;;21.40;70.10;99077.44;4357126;32;34108;-86
2023/06/08 07:22:01;;;;;;;27.45;23.23;;;;;;;21.27;69.75;99076.97;4360589;32;34259;-84
2023/06/08 07:24:40;;;;;;;27.20;24.12;;;;;;;21.28;70.31;99080.44;4360339;32;33936;-82
2023/06/08 07:27:28;;;;;;;29.95;24.27;;;;;;;21.36;71.70;99079.31;4360964;32;34080;-82
2023/06/08 07:29:56;;;;;;;28.80;23.12;;;;;;;21.73;69.24;99070.19;4361148;32;33628;-82
2023/06/08 07:32:24;;;;;;;28.40;25.00;;;;;;;21.87;68.79;99075.84;4361053;32;34122;-82
2023/06/08 07:34:52;;;;;;;31.67;25.02;;;;;;;21.51;70.00;99075.31;4347408;32;34004;-87
2023/06/08 07:37:20;;;;;;;28.02;25.00;;;;;;;21.62;70.30;99070.53;4360823;32;33742;-82
2023/06/08 07:39:47;;;;;;;30.62;27.02;;;;;;;21.59;69.74;99072.41;4347421;32;33839;-83
2023/06/08 07:42:16;;;;;;;32.17;25.90;;;;;;;21.62;71.00;99073.19;4347470;32;34202;-83
2023/06/08 07:44:43;;;;;;;30.50;24.95;;;;;;;21.90;69.44;99072.25;4361025;32;34695;-85
2023/06/08 07:47:11;;;;;;;30.40;24.75;;;;;;;22.21;67.61;99082.62;4370440;32;33404;-86
2023/06/08 07:49:39;;;;;;;28.87;23.23;;;;;;;22.17;67.33;99080.16;4362149;32;33962;-81
2023/06/08 07:52:07;;;;;;;25.00;22.25;;;;;;;22.06;68.22;99083.12;4365906;32;34263;-82
2023/06/08 07:54:35;;;;;;;26.60;21.87;;;;;;;22.05;68.33;99077.00;4375548;32;34508;-81
2023/06/08 07:57:02;;;;;;;25.58;22.73;;;;;;;22.60;66.05;99068.84;4368846;32;33628;-80
2023/06/08 07:59:30;;;;;;;29.42;21.95;;;;;;;22.07;69.09;99075.16;4362139;32;33902;-80
2023/06/08 08:01:57;;;;;;;31.10;21.20;;;;;;;22.56;66.75;99072.53;4375494;32;34285;-81
2023/06/08 08:04:25;;;;;;;31.12;22.45;;;;;;;22.33;67.42;99074.25;4372581;32;33798;-82
2023/06/08 08:06:53;;;;;;;27.70;22.92;;;;;;;22.29;67.45;99077.91;4360056;32;33724;-83
2023/06/08 08:09:20;;;;;;;26.92;21.48;;;;;;;22.45;66.31;99074.72;4360856;32;34145;-82
2023/06/08 08:11:48;;;;;;;22.30;19.27;;;;;;;22.26;66.90;99074.53;4360816;32;34300;-82
2023/06/08 08:14:16;;;;;;;24.37;21.12;;;;;;;22.29;67.41;99070.00;4346203;32;32994;-82
2023/06/08 08:16:43;;;;;;;24.98;19.42;;;;;;;22.45;67.03;99066.78;4360604;32;33273;-87
2023/06/08 08:19:11;;;;;;;22.87;19.05;;;;;;;22.71;66.63;99071.94;4360264;32;33750;-82
2023/06/08 08:21:38;;;;;;;22.98;18.73;;;;;;;22.81;64.97;99060.12;4360788;32;33846;-82
2023/06/08 08:24:06;;;;;;;22.75;17.10;;;;;;;23.08;65.13;99062.63;4360056;32;33811;-82
2023/06/08 08:26:34;;;;;;;24.85;18.62;;;;;;;23.42;63.14;99059.47;4346562;32;33362;-82
2023/06/08 08:29:01;;;;;;;27.55;19.92;;;;;;;23.45;63.87;99062.00;4346790;32;33392;-82
2023/06/08 08:31:29;;;;;;;25.45;19.20;;;;;;;23.25;64.28;99062.78;4359976;32;33830;-82
2023/06/08 08:33:57;;;;;;;21.00;18.00;;;;;;;23.22;64.25;99062.06;4360588;32;33491;-80
2023/06/08 08:36:25;;;;;;;24.27;18.80;;;;;;;23.61;62.96;99059.56;4347987;32;33303;-82
2023/06/08 08:38:52;;;;;;;24.52;18.25;;;;;;;23.37;63.03;99055.28;4346916;32;33714;-81
2023/06/08 08:41:21;;;;;;;22.85;18.83;;;;;;;23.20;64.71;99056.84;4358978;32;33737;-81
2023/06/08 08:44:03;;;;;;;26.90;19.90;;;;;;;23.29;63.38;99048.50;4334101;32;32813;-84
2023/06/08 08:46:37;;;;;;;23.38;17.20;;;;;;;23.28;64.06;99046.81;4329990;33;32928;-82
2023/06/08 08:49:08;;;;;;;23.67;17.92;;;;;;;22.80;64.02;99058.38;4344628;33;33926;-82
2023/06/08 08:51:39;;;;;;;22.98;18.05;;;;;;;23.11;63.44;99059.88;4344266;33;33864;-82
2023/06/08 08:54:07;;;;;;;21.50;17.70;;;;;;;22.73;64.18;99059.56;4345345;33;35054;-82
2023/06/08 08:56:36;;;;;;;22.52;17.37;;;;;;;22.79;65.48;99072.50;4345672;33;34111;-82
2023/06/08 08:59:05;;;;;;;21.52;16.73;;;;;;;22.55;65.53;99070.81;4344408;33;33576;-82
2023/06/08 09:01:33;;;;;;;22.27;17.35;;;;;;;22.44;65.90;99067.72;4344178;33;34953;-82
2023/06/08 09:04:01;;;;;;;21.75;15.73;;;;;;;22.45;65.66;99075.56;4332306;33;33945;-82
2023/06/08 09:06:29;;;;;;;21.02;16.62;;;;;;;22.99;64.65;99061.19;4344420;33;33304;-82
2023/06/08 09:08:56;;;;;;;19.92;16.17;;;;;;;23.35;64.07;99067.72;4332404;33;33669;-83
2023/06/08 09:11:24;;;;;;;18.67;15.15;;;;;;;23.13;63.38;99051.84;4344260;33;34771;-82
2023/06/08 09:14:09;;;;;;;20.33;16.45;;;;;;;23.17;64.01;99049.03;4345501;33;33299;-81
2023/06/08 09:16:43;;;;;;;23.25;16.15;;;;;;;23.18;64.03;99049.88;4343859;33;33503;-82
2023/06/08 09:19:11;;;;;;;20.83;15.25;;;;;;;23.06;64.60;99054.75;4345033;33;34856;-82
2023/06/08 09:21:43;;;;;;;18.35;14.75;;;;;;;23.26;64.00;99048.66;4345654;33;33778;-82
2023/06/08 09:24:16;;;;;;;19.77;15.07;;;;;;;23.42;62.71;99048.03;4334300;33;34224;-82
2023/06/08 09:26:48;;;;;;;19.67;15.30;;;;;;;23.38;62.28;99049.94;4332128;33;33123;-82
2023/06/08 09:29:32;;;;;;;18.55;14.35;;;;;;;23.29;62.61;99037.94;4331540;33;32443;-82
2023/06/08 09:32:01;;;;;;;18.80;14.93;;;;;;;23.62;62.18;99044.53;4345146;33;33856;-82
2023/06/08 09:34:34;;;;;;;19.67;14.07;;;;;;;23.65;62.33;99033.84;4331794;33;33542;-82
2023/06/08 09:37:07;;;;;;;20.73;15.95;;;;;;;23.57;61.54;99035.94;4344091;33;33331;-82
2023/06/08 09:39:41;;;;;;;18.80;14.52;;;;;;;23.11;62.99;99032.53;4345094;33;33845;-82
2023/06/08 09:42:10;;;;;;;18.70;13.93;;;;;;;23.68;61.96;99034.59;4331787;33;34428;-82
2023/06/08 09:44:38;;;;;;;20.10;14.60;;;;;;;23.94;61.64;99035.22;4331973;33;33667;-82
2023/06/08 09:47:27;;;;;;;19.75;14.77;;;;;;;;;;4331935;33;33840;-82
2023/06/08 09:49:55;;;;;;;21.25;15.25;;;;;;;23.63;62.16;99025.09;4345314;33;33770;-82
2023/06/08 09:52:31;;;;;;;19.42;14.52;;;;;;;23.26;63.32;99032.78;4345050;33;33921;-89
2023/06/08 09:54:59;;;;;;;20.12;15.20;;;;;;;23.47;63.35;99036.31;4331850;33;34229;-82
2023/06/08 09:57:27;;;;;;;23.17;15.07;;;;;;;23.63;61.73;99025.94;4332302;33;33586;-89
2023/06/08 10:00:24;;;;;;;18.33;14.15;;;;;;;23.58;63.12;99027.94;4333379;33;33943;-83
2023/06/08 10:02:58;;;;;;;17.50;13.00;;;;;;;23.95;61.76;99023.75;4346920;33;34898;-82
2023/06/08 10:05:33;;;;;;;19.92;15.02;;;;;;;23.77;60.30;99013.00;4345491;33;34368;-82
2023/06/08 10:08:02;;;;;;;18.45;15.07;;;;;;;23.96;61.00;99018.34;4346844;33;33407;-82
2023/06/08 10:10:36;;;;;;;20.02;15.27;;;;;;;23.70;60.68;99022.12;4321069;33;34327;-82
2023/06/08 10:13:05;;;;;;;20.37;15.52;;;;;;;23.48;61.07;99021.31;4346719;33;33821;-82
2023/06/08 10:15:33;;;;;;;20.70;16.87;;;;;;;23.40;62.19;99011.03;4346398;33;34634;-82
2023/06/08 10:18:00;;;;;;;22.30;17.02;;;;;;;23.53;62.67;99012.25;4346559;33;33009;-82
2023/06/08 10:20:29;;;;;;;20.37;15.68;;;;;;;23.54;61.74;98999.88;4332970;33;34565;-82
2023/06/08 10:22:58;;;;;;;21.10;16.40;;;;;;;23.64;61.43;98995.94;4332782;33;33820;-87
2023/06/08 10:25:28;;;;;;;18.80;15.50;;;;;;;24.09;60.89;98994.81;4345397;33;33780;-82
2023/06/08 10:28:03;;;;;;;20.90;15.45;;;;;;;23.99;62.19;98991.75;4346660;33;33491;-83
2023/06/08 10:30:39;;;;;;;19.45;15.38;;;;;;;24.26;60.36;98997.59;4346298;33;33854;-82
2023/06/08 10:33:10;;;;;;;19.25;15.02;;;;;;;24.55;59.49;98995.41;4334216;33;33871;-82
2023/06/08 10:35:42;;;;;;;18.05;14.38;;;;;;;24.39;61.11;99005.00;4346427;33;34845;-82
2023/06/08 10:38:14;;;;;;;19.70;15.13;;;;;;;24.63;59.94;98992.41;4333529;33;33423;-83
2023/06/08 10:40:47;;;;;;;19.35;13.77;;;;;;;24.70;60.00;98992.03;4346445;33;33934;-82
2023/06/08 10:43:15;;;;;;;18.95;15.90;;;;;;;24.64;59.69;98989.66;4332939;33;34614;-82
2023/06/08 10:46:03;;;;;;;24.83;17.60;;;;;;;24.32;61.18;98988.50;4346561;33;34530;-83
2023/06/08 10:48:38;;;;;;;24.27;18.20;;;;;;;24.34;61.78;98983.12;4346517;33;34363;-82
2023/06/08 10:51:10;;;;;;;21.48;17.42;;;;;;;24.23;62.09;98981.81;4346515;33;34708;-83
2023/06/08 10:53:57;;;;;;;23.80;18.15;;;;;;;24.46;61.28;98977.28;4346215;33;35169;-83
2023/06/08 10:56:28;;;;;;;27.13;21.80;;;;;;;24.47;60.33;98965.75;4333226;33;34660;-82
2023/06/08 10:58:56;;;;;;;24.33;20.08;;;;;;;23.69;63.47;98970.13;4346136;33;34146;-81
2023/06/08 11:01:31;;;;;;;26.58;19.80;;;;;;;23.52;65.42;98964.69;4346245;33;33630;-82
2023/06/08 11:04:00;;;;;;;21.05;18.42;;;;;;;24.17;62.81;98968.00;4346044;33;33737;-82
2023/06/08 11:06:38;;;;;;;23.55;19.42;;;;;;;24.35;62.14;98961.84;4334258;33;33929;-82
2023/06/08 11:09:06;;;;;;;23.83;18.87;;;;;;;24.44;60.74;98961.47;4332823;33;33461;-82
2023/06/08 11:11:35;;;;;;;21.17;17.70;;;;;;;24.54;60.85;98963.66;4346188;33;34118;-82
2023/06/08 11:14:02;;;;;;;27.33;20.20;;;;;;;24.54;60.19;98966.31;4346127;33;33756;-82
2023/06/08 11:16:30;;;;;;;27.67;20.55;;;;;;;24.72;59.26;98960.12;4346237;33;33468;-82
2023/06/08 11:18:57;;;;;;;24.65;20.77;;;;;;;23.40;63.57;98967.84;4345990;33;33148;-82
2023/06/08 11:21:26;;;;;;;25.95;20.58;;;;;;;24.05;61.47;98969.41;4345799;33;34754;-83
2023/06/08 11:23:54;;;;;;;28.70;19.80;;;;;;;24.49;60.76;98961.25;4346249;32;33812;-81
2023/06/08 11:26:23;;;;;;;25.05;17.50;;;;;;;24.48;60.46;98959.53;4347106;32;33688;-82
2023/06/08 11:28:50;;;;;;;24.40;19.58;;;;;;;24.59;60.25;98953.72;4346556;32;34479;-87
2023/06/08 11:31:20;;;;;;;29.23;21.25;;;;;;;24.73;59.43;98951.25;4360860;32;33999;-81
2023/06/08 11:33:49;;;;;;;22.70;17.50;;;;;;;24.89;57.72;98946.03;4359104;32;34870;-81
2023/06/08 11:36:17;;;;;;;23.73;18.25;;;;;;;24.87;56.71;98950.59;4346850;32;33494;-82
2023/06/08 11:38:45;;;;;;;23.65;18.35;;;;;;;24.87;57.94;98961.19;4360911;32;33394;-83
2023/06/08 11:41:13;;;;;;;20.50;16.80;;;;;;;24.88;56.79;98954.94;4346512;32;34777;-84
2023/06/08 11:43:40;;;;;;;23.92;18.52;;;;;;;25.24;56.49;98949.66;4346995;32;34265;-84
2023/06/08 11:46:09;;;;;;;23.38;18.15;;;;;;;25.11;55.33;98943.22;4360332;32;33756;-82